sept
29

MOTOCROSS DES NATIONS – LOMMEL : SUIVEZ LES WARM-UP ET LA FINALE B EN LIVE TIMING

Warm up B-Final – Classification
Pos Nr Rider Nat. Fed. Bike Bestlaptime in lap Diff. First Diff. Prev. Tot. Laps Speed

1 87 Cooper, Cody NZL MNZ Suzuki 1:58.797 3 0:00.000 0:00.000 5 50.001
2 40 Neugebauer, Filip CZE DMSB Kawasaki 1:59.660 3 0:00.863 0:00.863 4 49.641
3 23 Butron, Jose ESP RFME KTM 2:00.952 2 0:02.155 0:01.292 8 49.11
4 17 Terreblance, Shannon RSA MSA Kawasaki 2:01.238 2 0:02.441 0:00.286 7 48.995
5 93 Bucas, Vytautas LTU LMSF Honda 2:01.470 2 0:02.673 0:00.232 9 48.901
6 24 Lozano, Alvaro ESP RFME Honda 2:01.564 6 0:02.767 0:00.094 7 48.863
7 126 Nemeth, Kornel HUN MAMS KTM 2:01.663 3 0:02.866 0:00.099 7 48.823
8 39 Kojima, Yohei JPN MFJ Suzuki 2:02.327 5 0:03.530 0:00.664 8 48.558
9 42 Michek, Martin CZE ACCR KTM 2:02.764 2 0:03.967 0:00.437 7 48.386
10 85 Coppins, Joshua NZL MNZ Yamaha 2:03.004 2 0:04.207 0:00.240 3 48.291
11 22 Cros, Joan ESP RFME Suzuki 2:03.830 6 0:05.033 0:00.826 7 47.969
12 72 Chisholm, Kyle PUR AMA Kawasaki 2:04.302 4 0:05.505 0:00.472 7 47.787
13 71 Osborne, Zachary PUR ACU Yamaha 2:04.939 3 0:06.142 0:00.637 3 47.543
14 60 Walkner, Matthias AUT OeAMTC KTM 2:05.279 4 0:06.482 0:00.340 7 47.414
15 79 Gentil, Gabriel BRA CBM Yamaha 2:05.404 6 0:06.607 0:00.125 8 47.367
16 58 Schögler, Marco AUT OeAMTC KTM 2:06.568 5 0:07.771 0:01.164 5 46.931
17 75 Martin, Humberto VEN FMV Honda 2:07.242 2 0:08.445 0:00.674 8 46.683
18 96 Sveinsson, Solvi Borgar ISL MSI Honda 2:07.633 2 0:08.836 0:00.391 5 46.54
19 16 van der Westhuizen, Richard RSA MSA Yamaha 2:07.643 5 0:08.846 0:00.010 7 46.536
20 91 Rukstela, Nerijus LTU LMSF Suzuki 2:08.427 5 0:09.630 0:00.784 8 46.252
21 38 Takenaka, Junya JPN MFJ Kawasaki 2:09.469 2 0:10.672 0:01.042 9 45.88
22 125 Hugyecz, Erik HUN MAMS Yamaha 2:09.537 7 0:10.740 0:00.068 8 45.856
23 124 Szoke, Mark HUN MAMS Kawasaki 2:09.865 4 0:11.068 0:00.328 7 45.74
24 73 Badiali, Carlos VEN FMV Yamaha 2:09.923 7 0:11.126 0:00.058 8 45.719
25 97 Kouzis, Panagiotis GRE AMOTOE Honda 2:10.627 2 0:11.830 0:00.704 7 45.473
26 80 Silva Faria, Rafael BRA CBM Yamaha 2:11.063 3 0:12.266 0:00.436 7 45.322
27 92 Inda, Matas LTU LMSF Kawasaki 2:11.718 2 0:12.921 0:00.655 9 45.096
28 59 Neurauter, Lukas AUT OeAMTC KTM 2:11.939 5 0:13.142 0:00.221 6 45.021
29 37 Ogata, Makoto JPN MFJ Honda 2:12.470 6 0:13.673 0:00.531 8 44.84
30 41 Spicak, Milan CZE ACCR Kawasaki 2:13.085 5 0:14.288 0:00.615 8 44.633
31 95 Birgisson, Ingvi Bjorn ISL MSI KTM 2:14.081 2 0:15.284 0:00.996 6 44.302
32 94 Gudbergsson, Viktor ISL MSI Kawasaki 2:15.353 6 0:16.556 0:01.272 8 43.885
33 98 Kotoletas, Dimitris GRE AMOTOE Yamaha 2:15.781 1 0:16.984 0:00.428 7 43.747
34 99 Lliopoulos, George GRE AMOTOE KTM 2:17.982 2 0:19.185 0:02.201 8 43.049
35 70 Aponte, Gino PUR FMPR Yamaha 2:27.526 2 0:28.729 0:09.544 6 40.264

Warm up Group 1 – Classification
Pos Nr Rider Nat. Fed. Bike Bestlaptime in lap Diff. First Diff. Prev. Tot. Laps Speed

1 46 Cairoli, Antonio ITA FMI KTM 1:50.999 6 0:00.000 0:00.000 7 53.514
2 4 Paulin, Gautier FRA MCM Kawasaki 1:54.418 6 0:03.419 0:03.419 6 51.915
3 21 Schiffer, Marcus GER DMSB Suzuki 1:55.044 8 0:04.045 0:00.626 8 51.632
4 43 Bobryshev, Evgeny RUS MFR Honda 1:55.499 5 0:04.500 0:00.455 6 51.429
5 20 Roczen, Ken GER DMSB KTM 1:55.504 8 0:04.505 0:00.005 8 51.427
6 3 Barcia, Justin USA AMA Honda 1:55.630 4 0:04.631 0:00.126 7 51.371
7 1 Dungey, Ryan USA AMA KTM 1:56.887 5 0:05.888 0:01.257 8 50.818
8 6 Boog, Xavier FRA FFM Kawasaki 1:57.956 6 0:06.957 0:01.069 9 50.358
9 31 Goncalves, Rui POR FMP Honda 1:58.305 9 0:07.306 0:00.349 9 50.209
10 2 Baggett, Blake USA AMA Kawasaki 1:58.526 9 0:07.527 0:00.221 9 50.116
11 44 Tonkov, Alexander RUS MFR Honda 1:59.253 8 0:08.254 0:00.727 8 49.81
12 33 Correia, Luis POR FMP Yamaha 2:00.432 8 0:09.433 0:01.179 8 49.322
13 49 Söderberg, Ludde FIN SML Honda 2:00.516 2 0:09.517 0:00.084 5 49.288
14 51 Koskela, Niko FIN SML Kawasaki 2:00.853 4 0:09.854 0:00.337 8 49.151
15 5 Musquin, Marvin FRA AMA KTM 2:01.274 7 0:10.275 0:00.421 7 48.98
16 36 Guillod, Valentin SUI FMS KTM 2:01.595 4 0:10.596 0:00.321 6 48.851
17 63 Bengtsson, Filip SWE SVEMO KTM 2:01.654 6 0:10.655 0:00.059 8 48.827
18 69 Gercar, Klemen SLO AMZS Honda 2:01.866 5 0:10.867 0:00.212 5 48.742
19 19 Nagl, Maximilian GER DMSB KTM 2:02.921 6 0:11.922 0:01.055 7 48.324
20 62 Olsson, Karl SWE SVEMO Honda 2:03.323 7 0:12.324 0:00.402 7 48.166
21 45 Mikhaylov, Evgeny RUS MFR Suzuki 2:04.508 5 0:13.509 0:01.185 6 47.708
22 47 Lupino, Alessandro ITA FMI Husqvarna 2:04.643 3 0:13.644 0:00.135 4 47.656
23 68 Gajser, Tim SLO AMZS KTM 2:05.159 5 0:14.160 0:00.516 7 47.46
24 61 Lindstrom, Kim SWE SVEMO Kawasaki 2:05.968 4 0:14.969 0:00.809 7 47.155
25 67 Irt, Matevz SLO AMZS Suzuki 2:06.084 5 0:15.085 0:00.116 6 47.111
26 48 Guarneri, Davide ITA FMI KTM 2:07.488 4 0:16.489 0:01.404 5 46.593
27 32 Alberto, Paulo POR FMP Honda 2:09.160 8 0:18.161 0:01.672 8 45.989
28 35 Seewer, Jeremy SUI FMS Suzuki 2:09.749 5 0:18.750 0:00.589 7 45.781
29 50 Lehtinen, Teemu FIN SML Kawasaki 2:09.863 8 0:18.864 0:00.114 8 45.741

Warm up Group 2 – Classification
Pos Nr Rider Nat. Fed. Bike Bestlaptime in lap Diff. First Diff. Prev. Tot. Laps Speed

1 27 Herlings, Jeffrey NED KNMV KTM 1:52.173 5 0:00.000 0:00.000 10 52.954
2 30 Leok, Tanel EST EMF Suzuki 1:52.480 5 0:00.307 0:00.307 7 52.809
3 12 Anstie, Max GBR AMA Honda 1:56.478 8 0:04.305 0:03.998 8 50.997
4 15 de Dycker, Ken BEL FMB KTM 1:57.914 4 0:05.741 0:01.436 4 50.376
5 10 Searle, Tommy GBR ACU Kawasaki 1:58.399 8 0:06.226 0:00.485 9 50.169
6 9 Waters, Todd AUS MA Suzuki 1:58.443 4 0:06.270 0:00.044 7 50.151
7 14 van Horebeek, Jeremy BEL FMB KTM 1:58.516 3 0:06.343 0:00.073 6 50.12
8 25 de Reuver, Marc NED KNMV Kawasaki 1:59.156 6 0:06.983 0:00.640 8 49.851
9 55 Barr, Martin IRL MCUI Suzuki 1:59.638 6 0:07.465 0:00.482 8 49.65
10 26 Coldenhoff, Glenn NED KNMV KTM 2:00.649 8 0:08.476 0:01.011 8 49.234
11 77 Heibye, Even NOR NMF KTM 2:01.420 5 0:09.247 0:00.771 7 48.921
12 28 Krestinov, Gert EST EMF Honda 2:01.616 4 0:09.443 0:00.196 6 48.842
13 57 Edmonds, Stuart IRL MCUI Suzuki 2:02.461 2 0:10.288 0:00.845 7 48.505
14 13 Desalle, Clement BEL FMB Suzuki 2:02.513 2 0:10.340 0:00.052 7 48.485
15 54 Lynggaard, Kasper DEN DMU Kawasaki 2:02.732 6 0:10.559 0:00.219 7 48.398
16 11 Nicholls, Jake GBR ACU KTM 2:02.889 3 0:10.716 0:00.157 9 48.336
17 53 Olsen, Stefan Kjer DEN DMU Suzuki 2:03.155 6 0:10.982 0:00.266 8 48.232
18 29 Rätsep, Priit EST EMF KTM 2:03.636 4 0:11.463 0:00.481 5 48.044
19 52 Hansen, Nicolai DEN DMU Suzuki 2:03.744 5 0:11.571 0:00.108 8 48.002
20 56 Graeme, Irwin IRL MCUI Yamaha 2:05.159 7 0:12.986 0:01.415 8 47.46
21 65 Justs, Roberts LAT LAMSF Honda 2:05.330 5 0:13.157 0:00.171 8 47.395
22 66 Freibergs, Lauris LAT LAMSF Honda 2:05.845 5 0:13.672 0:00.515 7 47.201
23 7 Bopping, Lawson AUS MA Yamaha 2:06.609 5 0:14.436 0:00.764 7 46.916
24 64 Ivanovs, Davis LAT LAMSF Kawasaki 2:06.647 6 0:14.474 0:00.038 7 46.902
25 76 Jarva, Kim Oiva NOR NMF Honda 2:07.732 6 0:15.559 0:01.085 8 46.504
26 8 Styke, Luke AUS MA Yamaha 2:09.783 2 0:17.610 0:02.051 6 45.769
27 78 Klingsheim, Magne NOR NMF KTM 2:12.770 5 0:20.597 0:02.987 8 44.739

Horaires Dimanche (heure française..) :

Warm-up B-Final 8:40
Warm-up MXoN Group 1 9:10
Warm-up MXoN Group 2 9:40
B-Final 11:00

LIVE VIDÉO MXoN Race 1 (MX1+MX2) 13:08
LIVE VIDÉO MXoN Race 2 (MX2+Open) 14:38
LIVE VIDÉO MXoN Race 3 (MX1+Open) 16:08

IMPORTANT : Restez connectés sur PRE111IERMOTOCROSS ce dimanche matin afin de savoir comment accéder au Live Vidéo Gratuit..!

A voir aussi :

Un commentaire sur “MOTOCROSS DES NATIONS – LOMMEL : SUIVEZ LES WARM-UP ET LA FINALE B EN LIVE TIMING”

  1. syl dit :

    allez la belgique